KAUO/AUO METAR and TAF weather

Enter ICAO airport designator
Station Type Date Time Source
KAUO METAR 2020/04/07 02:56 UTC NOAA

KAUO 070256Z AUTO 00000KT 10SM CLR 21/14 A3010 RMK AO2 SLP206 T02110144 53012


Station Type Date Time Source
KAUO Decoded METAR 2020/04/07 02:56 UTC NOAA

Auburn-Opelika Airport, AL, United States (KAUO) 32-37N 085-26W
Apr 06, 2020 - 10:56 PM EDT / 2020.04.07 0256 UTC
Wind: Calm:0
Visibility: 10 mile(s):0
Sky conditions: clear
Temperature: 70.0 F (21.1 C)
Dew Point: 57.9 F (14.4 C)
Relative Humidity: 65%
Pressure (altimeter): 30.1 in. Hg (1019 hPa)
Pressure tendency: 0.04 inches (1.2 hPa) higher than three hours ago
ob: KAUO 070256Z AUTO 00000KT 10SM CLR 21/14 A3010 RMK AO2 SLP206 T02110144 53012
cycle: 3

Station Type Date Time Source
KAUO TAF UTC NOAA

Error!

Example: see airport list